WetterOnline ( https://www.wetteronline.de )

Wetter aktuell Hunding

Aktuelles Wetter: Fürstenzell (480m)

6-stündlich | Neueste Meldungen
Ortszeit Temperatur Wetter
So, 14.07. 20:00 23.4° C bewölkt
So, 14.07. 14:00 23.8° C fast wolkenlos
So, 14.07. 8:00 16.6° C bedeckt
So, 14.07. 2:00 16.5° C bedeckt
Sa, 13.07. 20:00 20.1° C bedeckt
Sa, 13.07. 14:00 21.7° C bewölkt
Sa, 13.07. 8:00 16.8° C wolkig
Sa, 13.07. 2:00 16.6° C leichter Regen
Ortszeit Temperatur Wetter
Mo, 15.07. 0:00 20.8° C bedeckt
So, 14.07. 23:50 20.8° C bedeckt
So, 14.07. 23:40 20.9° C bedeckt
So, 14.07. 23:30 21.0° C bedeckt
So, 14.07. 23:20 21.0° C bedeckt
So, 14.07. 23:10 21.1° C bedeckt
So, 14.07. 23:00 21.3° C bedeckt
So, 14.07. 22:30 21.2° C bedeckt
So, 14.07. 22:00 21.2° C bewölkt
So, 14.07. 21:30 21.9° C leichter Regen
So, 14.07. 21:00 22.2° C wolkig
Ortszeit Relative Feuchte Sichtweite
So, 14.07. 20:00 61% 50 km
So, 14.07. 14:00 60% 40 km
So, 14.07. 8:00 96% 23 km
So, 14.07. 2:00 91% 40 km
Sa, 13.07. 20:00 69% 60 km
Sa, 13.07. 14:00 67% >70 km
Sa, 13.07. 8:00 87% 50 km
Sa, 13.07. 2:00 95% 27 km
Ortszeit Relative Feuchte Sichtweite
Mo, 15.07. 0:00 70% 30 km
So, 14.07. 23:50 70% -
So, 14.07. 23:40 69% -
So, 14.07. 23:30 71% 35 km
So, 14.07. 23:20 71% -
So, 14.07. 23:10 71% -
So, 14.07. 23:00 72% 35 km
So, 14.07. 22:30 71% 40 km
So, 14.07. 22:00 74% 40 km
So, 14.07. 21:30 74% 40 km
So, 14.07. 21:00 71% 50 km
Ortszeit Niederschlagsmenge Niederschlagsart
So, 14.07. 20:00 0.0 l/m2 in 12 Std. -
So, 14.07. 14:00 0.0 l/m2 in 6 Std. -
So, 14.07. 8:00 7 l/m2 in 12 Std. -
So, 14.07. 2:00 7 l/m2 in 6 Std. Regen
Sa, 13.07. 20:00 0.0 l/m2 in 12 Std. -
Sa, 13.07. 14:00 0.0 l/m2 in 6 Std. -
Sa, 13.07. 8:00 9 l/m2 in 12 Std. Regen
Sa, 13.07. 2:00 5 l/m2 in 6 Std. Regen
Ortszeit Niederschlagsmenge Niederschlagsart
Mo, 15.07. 0:00 0.0 l/m2 in 1 Std. -
So, 14.07. 23:50 keine Meldung -
So, 14.07. 23:40 keine Meldung -
So, 14.07. 23:30 0.0 l/m2 in 30 Min -
So, 14.07. 23:20 keine Meldung -
So, 14.07. 23:10 keine Meldung -
So, 14.07. 23:00 0.1 l/m2 in 1 Std. Regen
So, 14.07. 22:30 0.1 l/m2 in 30 Min -
So, 14.07. 22:00 0.1 l/m2 in 1 Std. Regen
So, 14.07. 21:30 <0.05 l/m2 in 30 Min -
So, 14.07. 21:00 0.0 l/m2 in 1 Std. -
Ortszeit Stärke Spitze Richtung
km/h Bft. km/h Grad Sektor
So, 14.07. 20:00 2 1 15 140° SO
So, 14.07. 14:00 7 2 14 240° SW
So, 14.07. 8:00 4 1 11 50° NO
So, 14.07. 2:00 7 2 29 350° N
Sa, 13.07. 20:00 9 2 24 290° W
Sa, 13.07. 14:00 13 3 24 300° NW
Sa, 13.07. 8:00 7 2 25 240° SW
Sa, 13.07. 2:00 15 3 41 260° W
Ortszeit Stärke Spitze Richtung
km/h Bft. km/h Grad Sektor
Mo, 15.07. 0:00 4 1 7 200° S
So, 14.07. 23:50 4 1 - 200° S
So, 14.07. 23:40 4 1 - 220° SW
So, 14.07. 23:30 4 1 7 210° SW
So, 14.07. 23:20 4 1 - 210° SW
So, 14.07. 23:10 4 1 - 210° SW
So, 14.07. 23:00 4 1 7 210° SW
So, 14.07. 22:30 4 1 7 210° SW
So, 14.07. 22:00 2 1 7 210° SW
So, 14.07. 21:30 4 1 7 210° SW
So, 14.07. 21:00 4 1 7 210° SW
Ortszeit Untergrenze Bedeckung Gattung
total tief tief mittel hoch
So, 14.07. 20:00 6000 m 8/8 6/8 - - -
So, 14.07. 14:00 930 m 1/8 1/8 - - -
So, 14.07. 8:00 30 m 8/8 8/8 - - -
So, 14.07. 2:00 1290 m 8/8 8/8 - - -
Sa, 13.07. 20:00 1500 m 8/8 8/8 - - -
Sa, 13.07. 14:00 990 m 7/8 6/8 - - -
Sa, 13.07. 8:00 180 m 6/8 6/8 - - -
Sa, 13.07. 2:00 2100 m 8/8 3/8 - - -
Ortszeit Bedeckungsgrad in Achtel und Wolkenuntergrenze
Mo, 15.07. 0:00 2(3600m) 8(4500m) 8(5100m)
So, 14.07. 23:50 2(3600m) 8(4500m) 8(5100m)
So, 14.07. 23:40 8
So, 14.07. 23:30 7(3300m) 8(4500m)
So, 14.07. 23:20 7(3300m) 8(4500m)
So, 14.07. 23:10 8
So, 14.07. 23:00 5(3300m) 8(3900m) 8(4800m)
So, 14.07. 22:30 7(3000m) 8(3900m) 8(4800m)
So, 14.07. 22:00 7(3000m) 7(3900m)
So, 14.07. 21:30 1(1050m) 8(4200m) 8(5700m)
So, 14.07. 21:00 3(2700m) 8(5400m) 8(6000m)
Ortszeit Luftdruck NN (hPa) Tendenz (hPa in 3 Std.)
So, 14.07. 20:00 1013 + 0,4
So, 14.07. 14:00 1013 - 0,2
So, 14.07. 8:00 1015 + 0,5
So, 14.07. 2:00 1014 + 0,6
Sa, 13.07. 20:00 1012 + 0,1
Sa, 13.07. 14:00 1012 - 0,2
Sa, 13.07. 8:00 1014 + 0,4
Sa, 13.07. 2:00 1012 + 2,3
Ortszeit Luftdruck NN (hPa) Tendenz (hPa in 3 Std.)
Mo, 15.07. 0:00 1015 + 0,1
So, 14.07. 23:50 1015 keine Meldung
So, 14.07. 23:40 1015 keine Meldung
So, 14.07. 23:30 1015 + 0,4
So, 14.07. 23:20 1015 keine Meldung
So, 14.07. 23:10 1014 keine Meldung
So, 14.07. 23:00 1015 + 0,7
So, 14.07. 22:30 1014 + 0,9
So, 14.07. 22:00 1015 + 1,1
So, 14.07. 21:30 1014 + 1,0
So, 14.07. 21:00 1014 + 1,0
Ortszeit Schneehöhe (cm)
So, 14.07. 20:00 0
So, 14.07. 14:00 0
So, 14.07. 8:00 0
So, 14.07. 2:00 0
Sa, 13.07. 20:00 0
Sa, 13.07. 14:00 0
Sa, 13.07. 8:00 0
Sa, 13.07. 2:00 0
Ortszeit Schneehöhe (cm)
Mo, 15.07. 0:00 0
So, 14.07. 23:50 0
So, 14.07. 23:40 -
So, 14.07. 23:30 0
So, 14.07. 23:20 0
So, 14.07. 23:10 -
So, 14.07. 23:00 0
So, 14.07. 22:30 0
So, 14.07. 22:00 0
So, 14.07. 21:30 0
So, 14.07. 21:00 0
Link zu dieser Seite / Seite empfehlen

Das Wetter in ...